Time;durP1;ratioP1;P1;durP2;ratioP2;P2;SDS_P1;SDS_P2;PMS_P1;PMS_P2;Temp;Humidity;BMP_temperature;BMP_pressure;BME280_temperature;BME280_humidity;BME280_pressure;Samples;Min_cycle;Max_cycle;Signal;HPM_P1;HPM_P2
2021/10/11 05:02:21;;;;;;;9.70;8.20;;;;;;;9.76;100.00;95220.19;5211453;23;20154;-79
2021/10/11 05:04:47;;;;;;;10.38;9.38;;;;;;;9.73;100.00;95221.31;4948443;28;20113;-78
2021/10/11 05:07:12;;;;;;;8.63;7.47;;;;;;;9.80;100.00;95227.47;4969689;28;20042;-78
2021/10/11 05:09:38;;;;;;;7.85;7.13;;;;;;;9.82;100.00;95238.47;4969949;28;20035;-78
2021/10/11 05:12:04;;;;;;;8.07;6.97;;;;;;;9.76;100.00;95241.69;4969263;28;20459;-78
2021/10/11 05:14:29;;;;;;;6.45;5.97;;;;;;;9.75;100.00;95249.63;4969976;28;20047;-78
2021/10/11 05:16:55;;;;;;;4.85;4.43;;;;;;;9.82;100.00;95253.19;4969065;28;20018;-78
2021/10/11 05:19:27;;;;;;;6.93;6.25;;;;;;;9.90;100.00;95254.00;4969996;28;20027;-79
2021/10/11 05:21:53;;;;;;;6.75;6.25;;;;;;;9.90;100.00;95243.66;4968920;28;20447;-79
2021/10/11 05:24:18;;;;;;;5.60;5.20;;;;;;;9.97;100.00;95243.84;4969767;28;20066;-78
2021/10/11 05:26:44;;;;;;;5.43;5.03;;;;;;;10.02;100.00;95241.56;4969486;28;20031;-78
2021/10/11 05:29:10;;;;;;;5.65;5.15;;;;;;;10.02;100.00;95237.19;4955997;28;20431;-78
2021/10/11 05:31:36;;;;;;;5.40;5.00;;;;;;;10.04;100.00;95239.63;4950383;29;20468;-78
2021/10/11 05:34:02;;;;;;;5.55;5.15;;;;;;;10.14;100.00;95229.97;4949531;29;20587;-78
2021/10/11 05:36:27;;;;;;;4.00;3.70;;;;;;;10.12;100.00;95216.34;4950751;29;20027;-78
2021/10/11 05:38:53;;;;;;;4.15;3.00;;;;;;;10.17;100.00;95218.50;4949635;29;20128;-78
2021/10/11 05:41:19;;;;;;;3.90;3.22;;;;;;;10.19;100.00;95212.19;4950584;29;20493;-79
2021/10/11 05:43:44;;;;;;;3.58;3.03;;;;;;;10.18;100.00;95214.94;4949386;29;20027;-79
2021/10/11 05:46:10;;;;;;;4.82;3.42;;;;;;;10.23;100.00;95217.84;4950236;29;20120;-78
2021/10/11 05:48:35;;;;;;;6.38;5.85;;;;;;;10.16;100.00;95216.88;4949851;29;20031;-78
2021/10/11 05:51:01;;;;;;;4.65;4.25;;;;;;;10.11;100.00;95196.63;4949453;28;20102;-78
2021/10/11 05:53:26;;;;;;;2.78;2.58;;;;;;;10.12;100.00;95194.81;4949607;29;20042;-78
2021/10/11 05:55:52;;;;;;;3.08;2.88;;;;;;;10.22;100.00;95185.97;4932498;29;20428;-78
2021/10/11 05:58:17;;;;;;;2.80;2.60;;;;;;;10.24;100.00;95191.00;4950819;28;20034;-78
2021/10/11 06:00:43;;;;;;;2.70;2.50;;;;;;;10.23;100.00;95186.78;4951405;28;20484;-78
2021/10/11 06:03:09;;;;;;;3.75;3.47;;;;;;;10.26;100.00;95194.22;4952374;28;20039;-78
2021/10/11 06:05:35;;;;;;;3.97;3.78;;;;;;;10.23;100.00;95191.97;4952791;29;20038;-78
2021/10/11 06:08:00;;;;;;;4.68;4.28;;;;;;;10.25;100.00;95197.78;4952435;28;20032;-77
2021/10/11 06:10:26;;;;;;;3.80;3.50;;;;;;;10.23;100.00;95199.72;4952288;29;20038;-77
2021/10/11 06:12:52;;;;;;;6.13;5.68;;;;;;;10.23;100.00;95207.50;4950933;28;20036;-78
2021/10/11 06:15:17;;;;;;;4.72;4.43;;;;;;;10.26;100.00;95207.16;4953063;29;20086;-78
2021/10/11 06:17:43;;;;;;;7.05;6.55;;;;;;;10.18;100.00;95183.88;4933846;29;20507;-78
2021/10/11 06:20:09;;;;;;;8.88;8.00;;;;;;;10.30;100.00;95200.69;4923138;29;20069;-77
2021/10/11 06:22:34;;;;;;;7.95;7.45;;;;;;;10.24;100.00;95202.13;4946992;29;20063;-83
2021/10/11 06:25:00;;;;;;;7.35;6.85;;;;;;;10.22;100.00;95206.69;4953237;29;20031;-89
2021/10/11 06:27:27;;;;;;;7.78;7.18;;;;;;;10.23;100.00;95216.06;4950478;29;20086;-87
2021/10/11 06:29:54;;;;;;;6.93;6.30;;;;;;;10.16;100.00;95217.69;4952102;29;20067;-87
2021/10/11 06:32:19;;;;;;;5.60;5.20;;;;;;;10.13;100.00;95211.97;4933393;29;20089;-87
2021/10/11 06:34:44;;;;;;;4.57;3.83;;;;;;;10.15;100.00;95210.06;4945547;28;20031;-83
2021/10/11 06:37:10;;;;;;;3.13;2.85;;;;;;;10.14;100.00;95201.50;4977983;28;20051;-79
2021/10/11 06:39:35;;;;;;;1.73;1.63;;;;;;;9.65;100.00;95081.66;5523147;23;21128;-78
2021/10/11 06:42:01;;;;;;;1.10;1.00;;;;;;;10.03;100.00;95088.75;4959868;28;20027;-81
2021/10/11 06:44:28;;;;;;;1.25;1.25;;;;;;;9.78;100.00;95029.47;5080956;23;20055;-78
2021/10/11 06:46:54;;;;;;;2.60;1.30;;;;;;;9.94;100.00;95032.84;4961881;29;20063;-80
2021/10/11 06:51:55;;;;;;;0.88;0.88;;;;;;;10.07;100.00;95032.31;5221720;23;20047;-81
2021/10/11 06:54:20;;;;;;;1.50;1.40;;;;;;;10.21;100.00;95067.09;5605601;23;20062;-78
2021/10/11 07:01:51;;;;;;;1.90;1.80;;;;;;;10.34;100.00;95031.16;4969191;28;20054;-79
2021/10/11 07:06:51;;;;;;;2.00;1.90;;;;;;;10.30;100.00;94993.63;5243818;23;20040;-81
2021/10/11 07:09:17;;;;;;;1.92;1.83;;;;;;;10.13;100.00;94964.38;5118112;23;20103;-79
2021/10/11 07:11:42;;;;;;;2.13;2.03;;;;;;;10.21;100.00;94979.09;4949023;29;20040;-80
2021/10/11 07:14:08;;;;;;;2.40;2.30;;;;;;;10.15;100.00;94967.63;4939679;29;20016;-80
2021/10/11 07:16:34;;;;;;;2.13;2.03;;;;;;;9.99;100.00;94945.16;5145677;23;20043;-80
2021/10/11 07:18:59;;;;;;;2.83;2.72;;;;;;;10.29;100.00;94994.59;5097636;23;20043;-79
2021/10/11 07:21:25;;;;;;;2.60;2.50;;;;;;;10.11;100.00;94947.41;4938718;28;20031;-79
2021/10/11 07:23:50;;;;;;;2.50;2.40;;;;;;;10.33;100.00;94985.53;5236006;23;20055;-78
2021/10/11 07:26:16;;;;;;;4.72;4.40;;;;;;;10.43;100.00;94997.28;5000928;23;20042;-80
2021/10/11 07:28:41;;;;;;;2.83;2.63;;;;;;;10.64;100.00;95039.91;5376759;23;20066;-79
2021/10/11 07:33:42;;;;;;;3.05;2.95;;;;;;;10.46;100.00;94996.94;4952444;28;20039;-79
2021/10/11 07:36:08;;;;;;;2.53;2.40;;;;;;;10.35;100.00;94966.25;4947507;28;20080;-81
2021/10/11 07:38:33;;;;;;;2.60;2.50;;;;;;;10.45;100.00;94987.56;4923741;28;20009;-79
2021/10/11 08:00:35;;;;;;;2.67;2.58;;;;;;;10.39;100.00;94935.66;5713470;23;20136;-79
2021/10/11 08:08:09;;;;;;;2.55;2.35;;;;;;;10.88;100.00;94981.03;5529916;23;20919;-80
2021/10/11 08:35:35;;;;;;;4.47;4.18;;;;;;;10.92;100.00;94906.31;6097985;23;20803;31
2021/10/11 08:45:47;;;;;;;4.43;4.13;;;;;;;11.32;100.00;94959.63;5915335;23;20051;-88
2021/10/11 08:48:13;;;;;;;3.83;3.63;;;;;;;11.33;100.00;94959.47;4942074;28;20062;-85
2021/10/11 08:50:39;;;;;;;3.75;3.55;;;;;;;11.18;100.00;94924.09;5296880;23;20022;-79
2021/10/11 08:55:39;;;;;;;3.30;3.10;;;;;;;10.98;100.00;94864.19;5629650;23;20046;-84
2021/10/11 09:14:36;;;;;;;2.20;2.10;;;;;;;11.42;100.00;94814.97;5552224;23;20063;-86
2021/10/11 09:32:33;;;;;;;2.55;2.35;;;;;;;11.36;100.00;94800.16;5332357;23;20182;-88
2021/10/11 09:42:44;;;;;;;3.22;2.90;;;;;;;11.62;100.00;94831.63;5327478;23;20047;-81
2021/10/11 09:50:21;;;;;;;3.22;2.90;;;;;;;11.56;100.00;94785.63;6063723;23;20052;-82
2021/10/11 09:52:46;;;;;;;3.00;2.80;;;;;;;11.98;100.00;94814.31;4963668;28;20061;-81
2021/10/11 09:55:13;;;;;;;3.28;3.08;;;;;;;12.08;100.00;94807.03;4986017;28;20038;-87
2021/10/11 09:57:38;;;;;;;3.00;2.80;;;;;;;12.04;100.00;94779.84;4956941;28;20065;-87
2021/10/11 10:00:07;;;;;;;2.70;2.60;;;;;;;12.42;99.85;94826.38;4976864;28;20030;-86
2021/10/11 10:02:33;;;;;;;2.42;2.33;;;;;;;11.90;100.00;94790.25;4981434;28;20057;-82
2021/10/11 10:05:00;;;;;;;2.72;2.53;;;;;;;11.80;99.16;94764.63;5272331;23;20058;-86
2021/10/11 10:07:27;;;;;;;2.50;2.33;;;;;;;11.48;100.00;94737.28;4962347;28;20039;-84
2021/10/11 10:09:55;;;;;;;2.35;2.22;;;;;;;12.03;100.00;94795.59;4955529;28;20061;-86
2021/10/11 10:12:22;;;;;;;2.53;2.33;;;;;;;12.13;100.00;94816.88;4971503;28;20117;-86
2021/10/11 10:14:59;;;;;;;2.67;2.47;;;;;;;12.15;100.00;94815.72;4956589;28;20428;-88
2021/10/11 10:17:31;;;;;;;2.35;2.15;;;;;;;12.35;100.00;94820.31;4971285;28;20066;-87
2021/10/11 10:20:11;;;;;;;2.47;2.28;;;;;;;12.20;100.00;94809.16;4956200;28;20027;-89
2021/10/11 10:22:39;;;;;;;2.67;2.50;;;;;;;12.43;100.00;94822.75;4964137;28;20022;-88
2021/10/11 10:25:09;;;;;;;2.55;2.45;;;;;;;12.34;100.00;94813.50;4970332;28;20042;-88
2021/10/11 10:27:36;;;;;;;2.95;2.75;;;;;;;12.44;100.00;94816.59;4922267;28;20050;-86
2021/10/11 10:30:17;;;;;;;2.95;2.70;;;;;;;12.41;100.00;94814.38;4920528;28;20117;-87
2021/10/11 10:32:56;;;;;;;2.80;2.60;;;;;;;12.40;100.00;94820.53;4922588;28;20402;-89
2021/10/11 10:35:26;;;;;;;3.13;2.90;;;;;;;12.28;100.00;94809.03;4952811;28;20038;-87
2021/10/11 10:37:51;;;;;;;;;;;;;;;12.25;98.98;94806.81;4922560;28;20037;-82
2021/10/11 10:43:02;;;;;;;3.17;2.97;;;;;;;12.13;99.58;94788.34;5211719;23;20117;-86
2021/10/11 10:45:28;;;;;;;2.95;2.75;;;;;;;12.04;99.34;94753.88;4981907;28;20085;-89
2021/10/11 10:47:55;;;;;;;2.70;2.50;;;;;;;12.09;99.71;94759.34;4992058;28;20091;-85
2021/10/11 10:50:22;;;;;;;3.35;3.05;;;;;;;12.34;99.79;94783.13;4953314;28;20371;-89
2021/10/11 10:52:51;;;;;;;3.45;2.78;;;;;;;12.29;98.71;94769.91;4969524;28;20038;-88
2021/10/11 10:55:16;;;;;;;2.50;2.30;;;;;;;12.35;98.53;94769.16;4969771;28;20042;-88
2021/10/11 10:57:42;;;;;;;3.00;2.80;;;;;;;12.17;98.33;94783.56;4950260;28;20142;-83
2021/10/11 11:00:18;;;;;;;2.60;2.47;;;;;;;11.95;98.59;94731.63;5151719;23;20045;-82
2021/10/11 11:05:27;;;;;;;3.03;2.83;;;;;;;12.31;98.03;94754.13;5195339;23;20061;-85
2021/10/11 11:07:53;;;;;;;3.55;3.25;;;;;;;12.54;98.53;94758.16;4954731;28;20117;-88
2021/10/11 11:10:19;;;;;;;3.25;3.05;;;;;;;12.39;98.10;94767.00;4938017;28;20045;-84
2021/10/11 11:12:53;;;;;;;3.88;3.58;;;;;;;12.40;98.67;94768.59;4968296;28;20038;-84
2021/10/11 11:15:24;;;;;;;4.70;4.30;;;;;;;12.48;98.53;94769.28;4970086;28;20037;-85
2021/10/11 11:17:50;;;;;;;5.38;4.97;;;;;;;12.35;99.03;94778.75;4985659;28;20034;-82
2021/10/11 11:20:23;;;;;;;2.85;2.72;;;;;;;12.27;98.43;94773.66;4990184;28;20407;-78
2021/10/11 11:22:48;;;;;;;3.00;2.80;;;;;;;12.23;99.30;94775.03;4979434;28;20023;-79
2021/10/11 11:25:14;;;;;;;2.67;2.58;;;;;;;12.41;98.87;94771.03;4970248;28;20030;-90
2021/10/11 11:27:41;;;;;;;3.97;3.67;;;;;;;12.12;99.31;94758.97;4980032;28;20081;-78
2021/10/11 11:30:09;;;;;;;2.72;2.58;;;;;;;12.31;99.59;94772.31;4972494;28;20069;-78
2021/10/11 11:32:53;;;;;;;2.90;2.70;;;;;;;12.16;99.42;94759.41;4988760;28;20033;-79
2021/10/11 11:35:23;;;;;;;3.70;3.40;;;;;;;12.20;99.75;94755.44;4949429;28;20030;-79
2021/10/11 11:37:51;;;;;;;2.92;2.72;;;;;;;12.09;99.78;94768.91;4955893;28;20094;-78
2021/10/11 11:40:18;;;;;;;2.20;2.10;;;;;;;11.89;100.00;94721.19;4959853;28;20504;-80
2021/10/11 11:42:45;;;;;;;2.45;2.25;;;;;;;12.21;100.00;94751.84;4933401;28;20049;-87
2021/10/11 11:45:11;;;;;;;2.47;2.38;;;;;;;12.28;100.00;94767.50;4951082;28;20118;-85
2021/10/11 11:47:36;;;;;;;1.90;1.80;;;;;;;12.30;100.00;94778.47;4932343;28;20444;-85
2021/10/11 11:50:02;;;;;;;1.45;1.40;;;;;;;12.04;100.00;94751.28;4968709;28;20062;-85
2021/10/11 11:52:32;;;;;;;1.60;1.50;;;;;;;12.14;100.00;94779.53;4933049;28;20066;-83
2021/10/11 11:54:58;;;;;;;1.90;1.80;;;;;;;12.20;100.00;94783.97;4934714;28;20030;-87
2021/10/11 11:57:23;;;;;;;2.45;2.17;;;;;;;12.11;100.00;94766.91;4950366;28;20046;-85
2021/10/11 11:59:49;;;;;;;3.35;3.15;;;;;;;11.96;100.00;94769.56;4934239;28;20019;-79
2021/10/11 12:02:16;;;;;;;3.60;2.72;;;;;;;12.21;100.00;94787.38;4952375;28;20093;-83
2021/10/11 12:04:44;;;;;;;2.55;2.38;;;;;;;11.97;100.00;94754.81;4966961;28;20237;-85
2021/10/11 12:07:13;;;;;;;1.55;1.45;;;;;;;11.86;100.00;94766.47;4944666;28;20085;-79
2021/10/11 12:09:39;;;;;;;2.00;1.90;;;;;;;12.01;100.00;94782.00;4956589;28;20061;-79
2021/10/11 12:12:05;;;;;;;2.45;2.15;;;;;;;11.94;100.00;94779.34;4956944;28;20031;-78
2021/10/11 12:14:32;;;;;;;1.92;1.73;;;;;;;12.05;100.00;94776.25;4978023;28;20042;-78
2021/10/11 12:17:02;;;;;;;2.33;2.08;;;;;;;11.98;100.00;94779.75;4984575;28;20583;-80
2021/10/11 12:19:31;;;;;;;1.80;1.70;;;;;;;11.93;100.00;94777.72;4979525;28;20039;-78
2021/10/11 12:21:56;;;;;;;3.58;1.77;;;;;;;11.81;100.00;94778.41;4990862;28;20017;-79
2021/10/11 12:24:23;;;;;;;1.95;1.85;;;;;;;11.91;100.00;94778.91;4986111;28;20066;-79
2021/10/11 12:26:56;;;;;;;1.85;1.75;;;;;;;12.29;100.00;94795.06;4972932;28;20034;-80
2021/10/11 12:32:01;;;;;;;2.13;1.92;;;;;;;12.12;100.00;94781.53;1030498;26;21168;-77
2021/10/11 12:34:32;;;;;;;2.22;2.03;;;;;;;12.12;100.00;94753.78;4953259;28;20528;-88
2021/10/11 12:36:58;;;;;;;2.58;2.38;;;;;;;12.23;100.00;94752.50;4925483;28;20463;-84
2021/10/11 12:39:34;;;;;;;2.55;2.35;;;;;;;12.14;100.00;94756.16;4942895;28;20447;-84
2021/10/11 12:42:00;;;;;;;1.92;1.83;;;;;;;12.15;100.00;94758.59;4941092;28;20462;-85
2021/10/11 12:44:42;;;;;;;2.20;2.10;;;;;;;12.30;100.00;94749.91;4951149;28;20027;-82
2021/10/11 12:47:08;;;;;;;2.00;1.90;;;;;;;12.19;100.00;94753.03;4927675;28;20102;-82
2021/10/11 12:49:35;;;;;;;2.35;2.20;;;;;;;12.18;100.00;94733.25;4966188;28;20038;-80
2021/10/11 12:52:01;;;;;;;2.30;2.10;;;;;;;12.55;100.00;94740.78;4950490;28;20038;-86
2021/10/11 12:54:31;;;;;;;2.67;2.40;;;;;;;12.67;100.00;94727.09;4927294;28;20026;-86
2021/10/11 12:56:57;;;;;;;;;;;;;;;12.69;100.00;94732.88;4942567;28;20027;-87
2021/10/11 12:59:23;;;;;;;3.30;1.85;;;;;;;13.24;100.00;94712.25;4958758;28;19988;-85
2021/10/11 13:01:49;;;;;;;2.47;1.50;;;;;;;13.49;99.12;94703.75;4948878;28;20081;-85
2021/10/11 13:04:15;;;;;;;2.08;1.90;;;;;;;13.36;97.03;94690.69;4925304;28;20452;-84
2021/10/11 13:06:43;;;;;;;2.08;1.60;;;;;;;13.28;96.77;94692.66;4949820;28;20054;-83
2021/10/11 13:09:09;;;;;;;3.60;2.50;;;;;;;13.43;96.43;94690.72;4933312;28;20046;-84
2021/10/11 13:26:30;;;;;;;1.60;1.40;;;;;;;13.31;97.22;94676.66;5098552;27;20424;-83
2021/10/11 13:29:03;;;;;;;1.27;1.17;;;;;;;12.74;96.96;94672.56;5084553;28;20032;-82
2021/10/11 14:28:29;;;;;;;3.67;3.05;;;;;;;12.89;97.58;94644.66;5055838;28;20441;-82
2021/10/11 14:34:00;;;;;;;1.70;1.60;;;;;;;12.71;97.18;94649.56;5055029;28;20033;-83
2021/10/11 16:01:24;;;;;;;3.75;2.80;;;;;;;10.97;100.00;94671.63;5047528;28;20507;-84
2021/10/11 16:06:16;;;;;;;3.35;2.92;;;;;;;10.81;100.00;94671.81;5051501;28;20078;-84
2021/10/11 16:08:42;;;;;;;3.35;3.10;;;;;;;10.67;100.00;94671.81;5037045;28;20124;-83
2021/10/11 16:11:07;;;;;;;4.35;2.55;;;;;;;10.59;100.00;94683.06;5053146;28;20035;-86
2021/10/11 16:13:33;;;;;;;3.28;2.97;;;;;;;10.56;100.00;94681.63;5041498;28;20033;-85
2021/10/11 16:15:58;;;;;;;3.50;3.20;;;;;;;10.69;100.00;94691.34;5055461;28;20064;-85
2021/10/11 16:18:29;;;;;;;3.90;3.60;;;;;;;10.74;100.00;94678.69;5050212;28;20891;-84
2021/10/11 16:20:56;;;;;;;4.15;3.85;;;;;;;10.68;100.00;94688.97;5053485;28;20052;-84
2021/10/11 16:23:22;;;;;;;4.60;4.20;;;;;;;10.64;100.00;94698.06;5035934;28;21402;-85
2021/10/11 16:25:47;;;;;;;4.65;4.25;;;;;;;10.65;100.00;94699.69;5050640;28;20043;-84
2021/10/11 16:28:13;;;;;;;5.03;4.53;;;;;;;10.37;100.00;94678.75;5046557;28;20046;-85
2021/10/11 16:30:40;;;;;;;4.38;4.07;;;;;;;10.48;100.00;94688.66;5037017;28;20021;-84
2021/10/11 16:33:05;;;;;;;4.75;4.45;;;;;;;10.54;100.00;94695.72;5053741;28;20034;-84
2021/10/11 16:35:31;;;;;;;5.45;5.10;;;;;;;10.56;100.00;94706.72;5054183;28;20036;-84
2021/10/11 16:37:56;;;;;;;7.50;6.97;;;;;;;10.44;100.00;94713.28;5052162;28;20482;-84
2021/10/11 16:40:22;;;;;;;13.93;12.57;;;;;;;10.37;100.00;94717.59;5046188;28;20029;-82
2021/10/11 16:42:47;;;;;;;21.25;17.80;;;;;;;10.38;100.00;94726.94;5061953;28;20035;-86
2021/10/11 16:45:13;;;;;;;13.45;12.13;;;;;;;10.36;100.00;94728.91;5041129;28;20029;-86
2021/10/11 16:47:38;;;;;;;15.75;14.15;;;;;;;10.22;100.00;94732.25;5026684;28;20032;-85
2021/10/11 16:50:04;;;;;;;31.42;24.90;;;;;;;10.18;100.00;94739.56;5019600;28;20040;-85
2021/10/11 16:52:30;;;;;;;31.48;26.67;;;;;;;10.27;100.00;94750.66;5033413;28;20029;-80
2021/10/11 16:54:55;;;;;;;35.03;29.67;;;;;;;10.29;100.00;94736.56;5037749;28;20037;-85
2021/10/11 16:57:23;;;;;;;51.60;43.47;;;;;;;10.37;100.00;94746.06;5049218;28;20048;-88
2021/10/11 16:59:49;;;;;;;26.25;23.60;;;;;;;10.39;100.00;94744.09;5024667;28;20033;-87
2021/10/11 17:02:15;;;;;;;37.08;30.17;;;;;;;10.21;100.00;94744.38;5048454;28;20028;-88
2021/10/11 17:04:40;;;;;;;37.22;29.88;;;;;;;10.28;100.00;94755.66;5042210;28;20482;-86
2021/10/11 17:07:07;;;;;;;24.83;22.33;;;;;;;10.23;100.00;94749.41;5021387;28;20028;-86
2021/10/11 17:09:33;;;;;;;27.48;24.65;;;;;;;10.29;100.00;94746.09;5025755;28;20410;-87
2021/10/11 17:11:58;;;;;;;23.40;21.00;;;;;;;10.21;100.00;94752.16;5021215;28;20025;-86
2021/10/11 17:14:24;;;;;;;15.52;13.73;;;;;;;10.14;100.00;94751.25;5009923;28;20044;-87
2021/10/11 17:16:50;;;;;;;15.88;14.27;;;;;;;10.17;100.00;94755.25;5064891;28;20032;-85
2021/10/11 17:19:15;;;;;;;16.13;14.55;;;;;;;10.21;100.00;94766.88;5048486;28;20611;-82
2021/10/11 17:21:41;;;;;;;17.45;15.80;;;;;;;10.00;100.00;94751.94;5048177;28;20040;-87
2021/10/11 17:24:07;;;;;;;17.45;14.15;;;;;;;10.13;100.00;94741.03;5034905;28;20040;-85
2021/10/11 17:26:32;;;;;;;15.48;13.82;;;;;;;10.13;100.00;94752.19;5029212;28;20104;-87
2021/10/11 17:28:58;;;;;;;11.50;10.20;;;;;;;10.20;100.00;94749.75;5028123;28;20626;-85
2021/10/11 17:31:24;;;;;;;9.25;8.35;;;;;;;10.24;100.00;94748.44;5028828;28;20033;-86
2021/10/11 17:33:49;;;;;;;12.18;9.15;;;;;;;10.12;100.00;94721.28;5027610;28;20035;-86
2021/10/11 17:36:15;;;;;;;10.27;9.38;;;;;;;10.26;100.00;94749.84;5012146;28;20123;-87
2021/10/11 17:38:40;;;;;;;8.90;8.10;;;;;;;10.13;100.00;94751.38;5038198;28;20411;-86
2021/10/11 17:41:06;;;;;;;7.82;7.18;;;;;;;10.20;100.00;94737.63;5025125;28;20026;-86
2021/10/11 17:43:31;;;;;;;7.05;6.47;;;;;;;10.23;100.00;94739.84;5053304;28;20379;-86
2021/10/11 17:45:57;;;;;;;6.65;5.60;;;;;;;10.25;100.00;94729.31;5060228;28;20033;-86
2021/10/11 17:48:22;;;;;;;6.47;5.97;;;;;;;10.17;100.00;94722.44;5014949;28;20068;-87
2021/10/11 17:50:48;;;;;;;6.53;5.45;;;;;;;10.19;100.00;94728.22;5031807;28;20469;-86
2021/10/11 17:53:13;;;;;;;9.23;8.43;;;;;;;10.12;100.00;94724.69;5048958;28;20499;-83
2021/10/11 17:55:40;;;;;;;9.98;8.95;;;;;;;10.27;100.00;94753.25;5008077;28;20704;-81
2021/10/11 17:58:05;;;;;;;11.35;10.27;;;;;;;10.27;100.00;94750.66;5038162;28;20066;-86
2021/10/11 18:00:31;;;;;;;11.25;9.30;;;;;;;10.30;100.00;94758.88;5031647;28;20024;-86
2021/10/11 18:02:56;;;;;;;8.05;7.35;;;;;;;10.34;100.00;94751.59;5044980;28;20518;-86
2021/10/11 18:05:22;;;;;;;11.00;10.00;;;;;;;10.19;100.00;94748.94;5037120;28;20421;-85
2021/10/11 18:07:47;;;;;;;11.52;10.27;;;;;;;10.21;100.00;94764.31;5052954;28;20516;-81
2021/10/11 18:10:13;;;;;;;9.00;8.10;;;;;;;10.22;100.00;94764.13;5049904;28;20494;-85
2021/10/11 18:12:38;;;;;;;8.65;7.72;;;;;;;10.32;100.00;94771.66;5014044;28;20021;-84
2021/10/11 18:15:08;;;;;;;11.60;8.57;;;;;;;10.33;100.00;94757.72;5015356;28;20025;-85
2021/10/11 18:17:34;;;;;;;10.30;8.90;;;;;;;10.42;100.00;94770.44;5011977;28;20635;-79
2021/10/11 18:20:00;;;;;;;14.13;11.98;;;;;;;10.50;100.00;94764.38;5021586;28;20044;-84
2021/10/11 18:22:25;;;;;;;27.23;18.92;;;;;;;10.48;100.00;94750.81;5052345;28;20049;-89
2021/10/11 18:24:51;;;;;;;17.92;13.40;;;;;;;10.49;100.00;94747.25;5034009;28;20038;-85
2021/10/11 18:27:16;;;;;;;11.90;10.70;;;;;;;10.50;100.00;94752.22;5012319;28;20030;-84
2021/10/11 18:29:41;;;;;;;11.43;10.25;;;;;;;10.53;100.00;94759.66;5017058;28;20032;-84
2021/10/11 18:32:07;;;;;;;9.82;9.02;;;;;;;10.50;100.00;94749.66;5041647;28;20033;-85
2021/10/11 18:34:32;;;;;;;7.72;7.07;;;;;;;10.48;100.00;94740.44;5010919;28;20029;-86
2021/10/11 18:36:58;;;;;;;8.98;7.90;;;;;;;10.50;100.00;94733.28;5047363;28;20032;-86
2021/10/11 18:39:24;;;;;;;11.55;8.75;;;;;;;10.41;100.00;94718.81;5056216;28;20033;-89
2021/10/11 18:41:49;;;;;;;9.13;8.32;;;;;;;10.39;100.00;94720.78;5005858;28;20029;-91
2021/10/11 18:44:14;;;;;;;8.48;7.68;;;;;;;10.35;100.00;94719.53;5050167;28;20036;-85
2021/10/11 18:46:40;;;;;;;6.97;6.32;;;;;;;10.27;100.00;94712.66;5048937;28;20033;-85
2021/10/11 18:49:05;;;;;;;8.65;7.97;;;;;;;10.23;100.00;94718.34;5077587;28;20036;-87
2021/10/11 18:51:31;;;;;;;12.98;11.77;;;;;;;10.28;100.00;94729.78;5047606;28;20091;-83
2021/10/11 18:53:57;;;;;;;12.88;11.75;;;;;;;10.35;100.00;94732.47;5048969;28;20583;-83
2021/10/11 18:56:23;;;;;;;15.25;13.57;;;;;;;10.34;100.00;94726.47;5047807;28;20112;-87
2021/10/11 18:58:48;;;;;;;13.40;12.00;;;;;;;10.49;100.00;94734.28;5028300;28;20021;-91
2021/10/11 19:01:13;;;;;;;10.27;9.27;;;;;;;10.44;100.00;94723.66;5053548;28;20028;-88
2021/10/11 19:03:39;;;;;;;9.55;7.95;;;;;;;10.44;100.00;94734.81;5030558;28;20033;-88
2021/10/11 19:06:04;;;;;;;8.43;7.47;;;;;;;10.44;100.00;94739.19;5042891;28;20053;-87
2021/10/11 19:08:30;;;;;;;8.25;7.45;;;;;;;10.40;100.00;94743.13;5035267;28;20036;-88
2021/10/11 19:10:55;;;;;;;9.55;8.75;;;;;;;10.28;100.00;94737.53;5041453;28;20032;-86
2021/10/11 19:13:21;;;;;;;13.95;12.65;;;;;;;10.37;100.00;94744.25;5044186;28;20068;-88
2021/10/11 19:15:47;;;;;;;10.75;9.85;;;;;;;10.47;100.00;94728.47;5030563;28;20037;-88
2021/10/11 19:18:14;;;;;;;8.35;7.63;;;;;;;10.49;100.00;94735.09;5030152;28;20032;-90
2021/10/11 19:20:40;;;;;;;8.95;8.25;;;;;;;10.50;100.00;94738.47;5047210;28;20033;-89
2021/10/11 19:23:05;;;;;;;9.25;8.52;;;;;;;10.50;100.00;94738.47;5066505;28;20031;-89
2021/10/11 19:25:31;;;;;;;7.88;7.22;;;;;;;10.46;100.00;94732.88;5048992;28;20045;-88
2021/10/11 19:28:01;;;;;;;8.00;7.40;;;;;;;10.39;100.00;94719.00;5043109;28;20499;-87
2021/10/11 19:30:27;;;;;;;8.13;7.43;;;;;;;10.41;100.00;94732.56;5045417;28;20029;-89
2021/10/11 19:32:53;;;;;;;7.38;6.78;;;;;;;10.47;100.00;94736.25;5060021;28;20039;-88
2021/10/11 19:35:20;;;;;;;9.70;8.80;;;;;;;10.53;100.00;94746.69;5041649;28;20032;-90
2021/10/11 19:37:46;;;;;;;7.90;7.22;;;;;;;10.47;100.00;94718.13;5046606;28;20031;-89
2021/10/11 19:40:12;;;;;;;8.00;7.30;;;;;;;10.47;100.00;94721.50;5030593;28;20024;-88
2021/10/11 19:42:37;;;;;;;9.60;8.68;;;;;;;10.44;100.00;94727.03;5044458;28;20498;-88
2021/10/11 19:45:06;;;;;;;10.98;9.00;;;;;;;10.52;100.00;94726.19;5066945;28;20029;-89
2021/10/11 19:47:32;;;;;;;9.48;8.57;;;;;;;10.44;100.00;94702.94;5066219;28;20059;-88
2021/10/11 19:49:58;;;;;;;9.82;8.88;;;;;;;10.49;100.00;94716.97;5035295;28;20029;-88
2021/10/11 19:52:28;;;;;;;9.18;8.27;;;;;;;10.26;100.00;94716.22;5066364;28;20334;-90
2021/10/11 19:54:54;;;;;;;8.45;7.68;;;;;;;10.41;100.00;94744.72;5046933;28;20072;-92
2021/10/11 19:57:19;;;;;;;9.43;8.13;;;;;;;10.46;100.00;94732.06;5026906;28;20033;-89
2021/10/11 19:59:44;;;;;;;11.70;8.23;;;;;;;10.46;100.00;94734.66;4994531;28;20040;-91
2021/10/11 20:02:11;;;;;;;7.35;6.75;;;;;;;10.41;100.00;94731.75;5026359;28;20040;-91
2021/10/11 20:04:37;;;;;;;7.80;7.00;;;;;;;10.41;100.00;94721.41;5032182;28;20029;-91
2021/10/11 20:07:02;;;;;;;8.43;6.25;;;;;;;10.30;100.00;94721.84;5051097;28;20501;-90
2021/10/11 20:09:28;;;;;;;8.43;6.25;;;;;;;10.45;100.00;94725.25;5049234;28;20101;-91
2021/10/11 20:11:53;;;;;;;6.57;5.97;;;;;;;10.50;100.00;94733.28;5015032;28;20124;-92
2021/10/11 20:14:19;;;;;;;8.57;7.72;;;;;;;10.51;100.00;94738.31;5026227;28;20504;-92
2021/10/11 20:16:45;;;;;;;10.52;9.60;;;;;;;10.45;100.00;94736.44;5051318;28;20024;-91
2021/10/11 20:19:11;;;;;;;11.40;7.82;;;;;;;10.49;100.00;94735.09;5050483;28;20033;-92
2021/10/11 20:21:36;;;;;;;7.40;6.50;;;;;;;10.53;100.00;94738.16;5013836;28;20497;-92
2021/10/11 20:24:03;;;;;;;8.45;6.65;;;;;;;10.50;100.00;94749.66;5030921;28;20509;-91
2021/10/11 20:26:28;;;;;;;5.80;5.22;;;;;;;10.54;100.00;94756.09;5048357;28;20052;-93
2021/10/11 20:28:54;;;;;;;7.00;5.97;;;;;;;10.55;100.00;94749.13;5059326;28;20041;-90
2021/10/11 20:31:19;;;;;;;5.22;4.72;;;;;;;10.41;100.00;94734.34;5024300;28;20041;-92
2021/10/11 20:33:45;;;;;;;5.22;4.80;;;;;;;10.52;100.00;94747.69;5045711;28;20407;-91
2021/10/11 20:36:11;;;;;;;6.03;5.53;;;;;;;10.57;100.00;94737.59;5042443;28;20384;-93
2021/10/11 20:38:36;;;;;;;5.38;4.88;;;;;;;10.52;100.00;94744.31;5031227;28;20059;-91
2021/10/11 20:41:02;;;;;;;10.45;6.05;;;;;;;10.51;100.00;94751.25;5048199;28;20036;-86
2021/10/11 20:43:28;;;;;;;5.60;5.10;;;;;;;10.44;100.00;94830.59;5046232;28;20456;-86
2021/10/11 20:45:53;;;;;;;6.00;5.47;;;;;;;10.51;100.00;94854.03;5034680;28;20087;-86
2021/10/11 20:48:19;;;;;;;8.23;5.35;;;;;;;10.46;100.00;94851.16;5007901;28;20033;-87
2021/10/11 20:50:44;;;;;;;6.72;5.00;;;;;;;10.52;100.00;94863.41;5015185;28;20397;-90
2021/10/11 20:53:10;;;;;;;7.00;5.13;;;;;;;10.44;100.00;94853.91;5067764;28;20102;-87
2021/10/11 20:55:35;;;;;;;8.40;6.38;;;;;;;10.41;100.00;94859.44;5081386;28;20037;-88
2021/10/11 20:58:05;;;;;;;13.10;9.02;;;;;;;10.19;100.00;94865.38;5029973;28;20481;-86
2021/10/11 21:00:33;;;;;;;18.80;10.75;;;;;;;10.02;100.00;94854.28;5037618;28;20100;-81
2021/10/11 21:10:47;;;;;;;14.25;11.55;;;;;;;9.84;100.00;94930.50;5940479;22;20283;-89
2021/10/11 21:18:22;;;;;;;6.88;6.20;;;;;;;9.98;100.00;95008.25;5593223;23;20055;-82
2021/10/11 21:20:48;;;;;;;6.20;5.60;;;;;;;10.00;100.00;95024.41;4958540;29;20515;-81
2021/10/11 21:23:13;;;;;;;12.20;8.23;;;;;;;9.94;100.00;95013.91;4970710;28;20025;-80